sensor_id;sensor_type;location;lat;lon;timestamp;temperature;humidity
70336;SHT31;57756;47.408;18.940;2024-03-02T00:00:00;9.84;98.24
70336;SHT31;57756;47.408;18.940;2024-03-02T00:02:26;9.83;97.73
70336;SHT31;57756;47.408;18.940;2024-03-02T00:04:51;9.83;97.61
70336;SHT31;57756;47.408;18.940;2024-03-02T00:07:17;9.84;97.38
70336;SHT31;57756;47.408;18.940;2024-03-02T00:09:42;9.86;97.24
70336;SHT31;57756;47.408;18.940;2024-03-02T00:12:08;9.87;97.29
70336;SHT31;57756;47.408;18.940;2024-03-02T00:14:36;9.83;97.30
70336;SHT31;57756;47.408;18.940;2024-03-02T00:17:03;9.79;97.43
70336;SHT31;57756;47.408;18.940;2024-03-02T00:19:29;9.74;97.54
70336;SHT31;57756;47.408;18.940;2024-03-02T00:21:54;9.74;97.52
70336;SHT31;57756;47.408;18.940;2024-03-02T00:24:23;9.74;97.20
70336;SHT31;57756;47.408;18.940;2024-03-02T00:26:50;9.72;97.43
70336;SHT31;57756;47.408;18.940;2024-03-02T00:29:16;9.60;97.57
70336;SHT31;57756;47.408;18.940;2024-03-02T00:31:43;9.59;97.47
70336;SHT31;57756;47.408;18.940;2024-03-02T00:34:08;9.56;97.59
70336;SHT31;57756;47.408;18.940;2024-03-02T00:36:36;9.56;97.54
70336;SHT31;57756;47.408;18.940;2024-03-02T00:39:02;9.55;97.65
70336;SHT31;57756;47.408;18.940;2024-03-02T00:41:30;9.57;97.54
70336;SHT31;57756;47.408;18.940;2024-03-02T00:44:06;9.56;97.37
70336;SHT31;57756;47.408;18.940;2024-03-02T00:46:35;9.56;97.22
70336;SHT31;57756;47.408;18.940;2024-03-02T00:49:23;9.59;97.46
70336;SHT31;57756;47.408;18.940;2024-03-02T00:51:49;9.52;97.40
70336;SHT31;57756;47.408;18.940;2024-03-02T00:54:15;9.45;97.66
70336;SHT31;57756;47.408;18.940;2024-03-02T00:56:43;9.46;97.56
70336;SHT31;57756;47.408;18.940;2024-03-02T00:59:10;9.43;97.19
70336;SHT31;57756;47.408;18.940;2024-03-02T01:01:36;9.53;96.30
70336;SHT31;57756;47.408;18.940;2024-03-02T01:04:01;9.59;96.18
70336;SHT31;57756;47.408;18.940;2024-03-02T01:06:27;9.59;95.72
70336;SHT31;57756;47.408;18.940;2024-03-02T01:08:52;9.52;96.32
70336;SHT31;57756;47.408;18.940;2024-03-02T01:11:18;9.57;95.86
70336;SHT31;57756;47.408;18.940;2024-03-02T01:13:45;9.53;95.80
70336;SHT31;57756;47.408;18.940;2024-03-02T01:16:11;9.47;95.68
70336;SHT31;57756;47.408;18.940;2024-03-02T01:18:36;9.42;95.67
70336;SHT31;57756;47.408;18.940;2024-03-02T01:21:02;9.43;95.64
70336;SHT31;57756;47.408;18.940;2024-03-02T01:23:28;9.40;95.42
70336;SHT31;57756;47.408;18.940;2024-03-02T01:25:53;9.38;95.37
70336;SHT31;57756;47.408;18.940;2024-03-02T01:28:19;9.38;95.36
70336;SHT31;57756;47.408;18.940;2024-03-02T01:30:46;9.38;95.41
70336;SHT31;57756;47.408;18.940;2024-03-02T01:33:11;9.38;95.35
70336;SHT31;57756;47.408;18.940;2024-03-02T01:35:37;9.35;95.46
70336;SHT31;57756;47.408;18.940;2024-03-02T01:38:03;9.36;95.46
70336;SHT31;57756;47.408;18.940;2024-03-02T01:40:29;9.34;95.68
70336;SHT31;57756;47.408;18.940;2024-03-02T01:42:54;9.29;96.05
70336;SHT31;57756;47.408;18.940;2024-03-02T01:45:21;9.35;95.48
70336;SHT31;57756;47.408;18.940;2024-03-02T01:47:47;9.32;95.57
70336;SHT31;57756;47.408;18.940;2024-03-02T01:50:13;9.26;95.63
70336;SHT31;57756;47.408;18.940;2024-03-02T01:52:38;9.22;95.94
70336;SHT31;57756;47.408;18.940;2024-03-02T01:55:04;9.21;96.17
70336;SHT31;57756;47.408;18.940;2024-03-02T01:57:30;9.29;95.44
70336;SHT31;57756;47.408;18.940;2024-03-02T01:59:56;9.25;95.60
70336;SHT31;57756;47.408;18.940;2024-03-02T02:02:22;9.19;95.94
70336;SHT31;57756;47.408;18.940;2024-03-02T02:04:47;9.29;95.36
70336;SHT31;57756;47.408;18.940;2024-03-02T02:07:13;9.28;95.56
70336;SHT31;57756;47.408;18.940;2024-03-02T02:09:41;9.24;95.81
70336;SHT31;57756;47.408;18.940;2024-03-02T02:12:06;9.19;96.11
70336;SHT31;57756;47.408;18.940;2024-03-02T02:14:32;9.14;96.22
70336;SHT31;57756;47.408;18.940;2024-03-02T02:16:59;9.18;95.91
70336;SHT31;57756;47.408;18.940;2024-03-02T02:19:24;9.24;95.48
70336;SHT31;57756;47.408;18.940;2024-03-02T02:21:50;9.25;95.60
70336;SHT31;57756;47.408;18.940;2024-03-02T02:24:15;9.24;95.89
70336;SHT31;57756;47.408;18.940;2024-03-02T02:26:41;9.25;95.72
70336;SHT31;57756;47.408;18.940;2024-03-02T02:29:06;9.26;95.68
70336;SHT31;57756;47.408;18.940;2024-03-02T02:31:41;9.31;95.46
70336;SHT31;57756;47.408;18.940;2024-03-02T02:34:07;9.29;95.60
70336;SHT31;57756;47.408;18.940;2024-03-02T02:36:33;9.26;95.77
70336;SHT31;57756;47.408;18.940;2024-03-02T02:39:01;9.26;95.53
70336;SHT31;57756;47.408;18.940;2024-03-02T02:41:29;9.34;95.12
70336;SHT31;57756;47.408;18.940;2024-03-02T02:43:54;9.28;95.29
70336;SHT31;57756;47.408;18.940;2024-03-02T02:46:20;9.31;95.03
70336;SHT31;57756;47.408;18.940;2024-03-02T02:48:45;9.26;95.46
70336;SHT31;57756;47.408;18.940;2024-03-02T02:51:11;9.25;95.30
70336;SHT31;57756;47.408;18.940;2024-03-02T02:53:36;9.22;95.42
70336;SHT31;57756;47.408;18.940;2024-03-02T02:56:05;9.22;95.48
70336;SHT31;57756;47.408;18.940;2024-03-02T02:58:31;9.22;95.61
70336;SHT31;57756;47.408;18.940;2024-03-02T03:00:56;9.24;95.21
70336;SHT31;57756;47.408;18.940;2024-03-02T03:03:21;9.26;95.08
70336;SHT31;57756;47.408;18.940;2024-03-02T03:05:48;9.22;95.37
70336;SHT31;57756;47.408;18.940;2024-03-02T03:08:14;9.24;95.24
70336;SHT31;57756;47.408;18.940;2024-03-02T03:10:41;9.21;95.42
70336;SHT31;57756;47.408;18.940;2024-03-02T03:13:06;9.19;95.64
70336;SHT31;57756;47.408;18.940;2024-03-02T03:15:34;9.18;95.86
70336;SHT31;57756;47.408;18.940;2024-03-02T03:17:59;9.19;95.39
70336;SHT31;57756;47.408;18.940;2024-03-02T03:20:25;9.17;95.50
70336;SHT31;57756;47.408;18.940;2024-03-02T03:22:50;9.12;95.55
70336;SHT31;57756;47.408;18.940;2024-03-02T03:25:15;9.21;95.22
70336;SHT31;57756;47.408;18.940;2024-03-02T03:27:41;9.24;95.05
70336;SHT31;57756;47.408;18.940;2024-03-02T03:30:07;9.24;95.10
70336;SHT31;57756;47.408;18.940;2024-03-02T03:32:32;9.22;95.40
70336;SHT31;57756;47.408;18.940;2024-03-02T03:34:58;9.22;95.14
70336;SHT31;57756;47.408;18.940;2024-03-02T03:37:23;9.22;95.24
70336;SHT31;57756;47.408;18.940;2024-03-02T03:39:51;9.17;95.03
70336;SHT31;57756;47.408;18.940;2024-03-02T03:42:16;9.22;94.92
70336;SHT31;57756;47.408;18.940;2024-03-02T03:44:42;9.24;95.17
70336;SHT31;57756;47.408;18.940;2024-03-02T03:47:07;9.22;95.43
70336;SHT31;57756;47.408;18.940;2024-03-02T03:49:32;9.18;95.48
70336;SHT31;57756;47.408;18.940;2024-03-02T03:51:58;9.15;95.59
70336;SHT31;57756;47.408;18.940;2024-03-02T03:54:23;9.17;95.13
70336;SHT31;57756;47.408;18.940;2024-03-02T03:56:49;9.19;95.64
70336;SHT31;57756;47.408;18.940;2024-03-02T03:59:14;9.14;96.16
70336;SHT31;57756;47.408;18.940;2024-03-02T04:01:39;9.12;96.73
70336;SHT31;57756;47.408;18.940;2024-03-02T04:04:05;9.17;96.77
70336;SHT31;57756;47.408;18.940;2024-03-02T04:06:30;9.17;96.86
70336;SHT31;57756;47.408;18.940;2024-03-02T04:08:56;9.15;96.98
70336;SHT31;57756;47.408;18.940;2024-03-02T04:11:21;9.11;97.40
70336;SHT31;57756;47.408;18.940;2024-03-02T04:13:47;9.07;98.03
70336;SHT31;57756;47.408;18.940;2024-03-02T04:16:12;8.98;98.13
70336;SHT31;57756;47.408;18.940;2024-03-02T04:18:38;9.04;97.91
70336;SHT31;57756;47.408;18.940;2024-03-02T04:21:05;9.04;97.46
70336;SHT31;57756;47.408;18.940;2024-03-02T04:23:30;9.05;98.06
70336;SHT31;57756;47.408;18.940;2024-03-02T04:25:55;9.04;98.30
70336;SHT31;57756;47.408;18.940;2024-03-02T04:28:21;9.05;98.39
70336;SHT31;57756;47.408;18.940;2024-03-02T04:30:46;8.98;98.93
70336;SHT31;57756;47.408;18.940;2024-03-02T04:33:11;8.97;99.13
70336;SHT31;57756;47.408;18.940;2024-03-02T04:35:37;8.98;99.51
70336;SHT31;57756;47.408;18.940;2024-03-02T04:38:02;8.92;99.99
70336;SHT31;57756;47.408;18.940;2024-03-02T04:40:28;8.83;99.99
70336;SHT31;57756;47.408;18.940;2024-03-02T04:42:53;8.81;99.99
70336;SHT31;57756;47.408;18.940;2024-03-02T04:45:19;8.77;99.99
70336;SHT31;57756;47.408;18.940;2024-03-02T04:47:44;8.69;99.99
70336;SHT31;57756;47.408;18.940;2024-03-02T04:50:10;8.64;99.99
70336;SHT31;57756;47.408;18.940;2024-03-02T04:52:36;8.67;99.99
70336;SHT31;57756;47.408;18.940;2024-03-02T04:55:01;8.63;99.99
70336;SHT31;57756;47.408;18.940;2024-03-02T04:57:56;8.64;99.99
70336;SHT31;57756;47.408;18.940;2024-03-02T05:00:21;8.63;99.99
70336;SHT31;57756;47.408;18.940;2024-03-02T05:02:47;8.60;99.99
70336;SHT31;57756;47.408;18.940;2024-03-02T05:05:12;8.64;99.99
70336;SHT31;57756;47.408;18.940;2024-03-02T05:07:38;8.57;99.99
70336;SHT31;57756;47.408;18.940;2024-03-02T05:10:03;8.60;99.99
70336;SHT31;57756;47.408;18.940;2024-03-02T05:12:29;8.54;99.99
70336;SHT31;57756;47.408;18.940;2024-03-02T05:15:14;8.50;99.99
70336;SHT31;57756;47.408;18.940;2024-03-02T05:17:41;8.53;99.99
70336;SHT31;57756;47.408;18.940;2024-03-02T05:20:09;8.54;99.99
70336;SHT31;57756;47.408;18.940;2024-03-02T05:22:35;8.49;99.99
70336;SHT31;57756;47.408;18.940;2024-03-02T05:25:02;8.52;99.99
70336;SHT31;57756;47.408;18.940;2024-03-02T05:27:28;8.49;99.99
70336;SHT31;57756;47.408;18.940;2024-03-02T05:29:53;8.50;99.99
70336;SHT31;57756;47.408;18.940;2024-03-02T05:32:19;8.48;99.99
70336;SHT31;57756;47.408;18.940;2024-03-02T05:34:44;8.48;99.99
70336;SHT31;57756;47.408;18.940;2024-03-02T05:37:10;8.50;99.99
70336;SHT31;57756;47.408;18.940;2024-03-02T05:39:35;8.52;99.99
70336;SHT31;57756;47.408;18.940;2024-03-02T05:42:00;8.52;99.99
70336;SHT31;57756;47.408;18.940;2024-03-02T05:44:26;8.49;99.99
70336;SHT31;57756;47.408;18.940;2024-03-02T05:46:51;8.53;99.99
70336;SHT31;57756;47.408;18.940;2024-03-02T05:49:17;8.53;99.99
70336;SHT31;57756;47.408;18.940;2024-03-02T05:51:43;8.53;99.99
70336;SHT31;57756;47.408;18.940;2024-03-02T05:54:08;8.52;99.99
70336;SHT31;57756;47.408;18.940;2024-03-02T05:56:34;8.50;99.99
70336;SHT31;57756;47.408;18.940;2024-03-02T05:59:00;8.54;99.99
70336;SHT31;57756;47.408;18.940;2024-03-02T06:01:47;8.54;99.99
70336;SHT31;57756;47.408;18.940;2024-03-02T06:04:13;8.52;99.99
70336;SHT31;57756;47.408;18.940;2024-03-02T06:06:39;8.60;99.99
70336;SHT31;57756;47.408;18.940;2024-03-02T06:09:06;8.60;99.99
70336;SHT31;57756;47.408;18.940;2024-03-02T06:11:35;8.63;99.99
70336;SHT31;57756;47.408;18.940;2024-03-02T06:14:02;8.63;99.99
70336;SHT31;57756;47.408;18.940;2024-03-02T06:16:27;8.56;99.99
70336;SHT31;57756;47.408;18.940;2024-03-02T06:18:52;8.56;99.99
70336;SHT31;57756;47.408;18.940;2024-03-02T06:21:19;8.57;99.99
70336;SHT31;57756;47.408;18.940;2024-03-02T06:23:44;8.56;99.99
70336;SHT31;57756;47.408;18.940;2024-03-02T06:26:10;8.60;99.99
70336;SHT31;57756;47.408;18.940;2024-03-02T06:28:35;8.61;99.99
70336;SHT31;57756;47.408;18.940;2024-03-02T06:31:02;8.61;99.99
70336;SHT31;57756;47.408;18.940;2024-03-02T06:33:27;8.61;99.99
70336;SHT31;57756;47.408;18.940;2024-03-02T06:35:54;8.66;99.99
70336;SHT31;57756;47.408;18.940;2024-03-02T06:38:22;8.66;99.99
70336;SHT31;57756;47.408;18.940;2024-03-02T06:40:48;8.69;99.99
70336;SHT31;57756;47.408;18.940;2024-03-02T06:43:13;8.70;99.99
70336;SHT31;57756;47.408;18.940;2024-03-02T06:45:38;8.74;99.99
70336;SHT31;57756;47.408;18.940;2024-03-02T06:48:04;8.74;99.99
70336;SHT31;57756;47.408;18.940;2024-03-02T06:50:30;8.70;99.99
70336;SHT31;57756;47.408;18.940;2024-03-02T06:52:55;8.74;99.99
70336;SHT31;57756;47.408;18.940;2024-03-02T06:55:21;8.74;99.99
70336;SHT31;57756;47.408;18.940;2024-03-02T06:57:47;8.81;99.99
70336;SHT31;57756;47.408;18.940;2024-03-02T07:00:13;8.83;99.99
70336;SHT31;57756;47.408;18.940;2024-03-02T07:02:39;8.80;99.99
70336;SHT31;57756;47.408;18.940;2024-03-02T07:05:06;8.77;99.99
70336;SHT31;57756;47.408;18.940;2024-03-02T07:07:33;8.77;99.99
70336;SHT31;57756;47.408;18.940;2024-03-02T07:10:00;8.80;99.99
70336;SHT31;57756;47.408;18.940;2024-03-02T07:12:25;8.83;99.99
70336;SHT31;57756;47.408;18.940;2024-03-02T07:14:51;8.84;99.99
70336;SHT31;57756;47.408;18.940;2024-03-02T07:17:36;8.85;99.99
70336;SHT31;57756;47.408;18.940;2024-03-02T07:20:02;8.88;99.99
70336;SHT31;57756;47.408;18.940;2024-03-02T07:22:29;8.97;99.99
70336;SHT31;57756;47.408;18.940;2024-03-02T07:24:54;8.97;99.99
70336;SHT31;57756;47.408;18.940;2024-03-02T07:27:20;8.91;99.99
70336;SHT31;57756;47.408;18.940;2024-03-02T07:29:46;8.96;99.99
70336;SHT31;57756;47.408;18.940;2024-03-02T07:32:11;9.01;99.99
70336;SHT31;57756;47.408;18.940;2024-03-02T07:34:37;9.01;99.99
70336;SHT31;57756;47.408;18.940;2024-03-02T07:37:05;9.04;99.99
70336;SHT31;57756;47.408;18.940;2024-03-02T07:39:31;9.01;99.99
70336;SHT31;57756;47.408;18.940;2024-03-02T07:41:56;9.03;99.99
70336;SHT31;57756;47.408;18.940;2024-03-02T07:44:22;9.05;99.99
70336;SHT31;57756;47.408;18.940;2024-03-02T07:46:48;9.03;99.99
70336;SHT31;57756;47.408;18.940;2024-03-02T07:49:15;9.04;99.99
70336;SHT31;57756;47.408;18.940;2024-03-02T07:51:41;9.03;99.99
70336;SHT31;57756;47.408;18.940;2024-03-02T07:54:07;9.07;99.99
70336;SHT31;57756;47.408;18.940;2024-03-02T07:56:32;9.04;99.99
70336;SHT31;57756;47.408;18.940;2024-03-02T07:58:58;9.05;99.99
70336;SHT31;57756;47.408;18.940;2024-03-02T08:01:30;9.08;99.99
70336;SHT31;57756;47.408;18.940;2024-03-02T08:03:57;9.17;99.99
70336;SHT31;57756;47.408;18.940;2024-03-02T08:06:24;9.12;99.99
70336;SHT31;57756;47.408;18.940;2024-03-02T08:08:53;9.10;99.99
70336;SHT31;57756;47.408;18.940;2024-03-02T08:11:18;9.17;99.99
70336;SHT31;57756;47.408;18.940;2024-03-02T08:13:44;9.12;99.99
70336;SHT31;57756;47.408;18.940;2024-03-02T08:16:10;9.17;99.99
70336;SHT31;57756;47.408;18.940;2024-03-02T08:18:35;9.26;99.99
70336;SHT31;57756;47.408;18.940;2024-03-02T08:21:01;9.22;99.99
70336;SHT31;57756;47.408;18.940;2024-03-02T08:23:27;9.18;99.99
70336;SHT31;57756;47.408;18.940;2024-03-02T08:25:52;9.17;99.99
70336;SHT31;57756;47.408;18.940;2024-03-02T08:28:18;9.17;99.99
70336;SHT31;57756;47.408;18.940;2024-03-02T08:30:43;9.24;99.99
70336;SHT31;57756;47.408;18.940;2024-03-02T08:33:08;9.32;99.99
70336;SHT31;57756;47.408;18.940;2024-03-02T08:35:34;9.26;99.99
70336;SHT31;57756;47.408;18.940;2024-03-02T08:38:04;9.25;99.99
70336;SHT31;57756;47.408;18.940;2024-03-02T08:40:30;9.32;99.99
70336;SHT31;57756;47.408;18.940;2024-03-02T08:42:55;9.34;99.99
70336;SHT31;57756;47.408;18.940;2024-03-02T08:45:21;9.35;99.99
70336;SHT31;57756;47.408;18.940;2024-03-02T08:47:46;9.35;99.99
70336;SHT31;57756;47.408;18.940;2024-03-02T08:50:12;9.36;99.99
70336;SHT31;57756;47.408;18.940;2024-03-02T08:52:38;9.39;99.99
70336;SHT31;57756;47.408;18.940;2024-03-02T08:55:04;9.38;99.99
70336;SHT31;57756;47.408;18.940;2024-03-02T08:57:30;9.45;99.99
70336;SHT31;57756;47.408;18.940;2024-03-02T08:59:55;9.42;99.99
70336;SHT31;57756;47.408;18.940;2024-03-02T09:02:21;9.45;99.99
70336;SHT31;57756;47.408;18.940;2024-03-02T09:04:46;9.50;99.99
70336;SHT31;57756;47.408;18.940;2024-03-02T09:07:14;9.53;99.99
70336;SHT31;57756;47.408;18.940;2024-03-02T09:09:40;9.50;99.99
70336;SHT31;57756;47.408;18.940;2024-03-02T09:12:06;9.55;99.99
70336;SHT31;57756;47.408;18.940;2024-03-02T09:14:32;9.39;99.99
70336;SHT31;57756;47.408;18.940;2024-03-02T09:16:57;9.47;99.99
70336;SHT31;57756;47.408;18.940;2024-03-02T09:19:22;9.45;99.99
70336;SHT31;57756;47.408;18.940;2024-03-02T09:21:48;9.40;99.99
70336;SHT31;57756;47.408;18.940;2024-03-02T09:24:13;9.39;99.99
70336;SHT31;57756;47.408;18.940;2024-03-02T09:26:38;9.40;99.99
70336;SHT31;57756;47.408;18.940;2024-03-02T09:29:04;9.40;99.99
70336;SHT31;57756;47.408;18.940;2024-03-02T09:31:29;9.38;99.99
70336;SHT31;57756;47.408;18.940;2024-03-02T09:33:55;9.47;99.99
70336;SHT31;57756;47.408;18.940;2024-03-02T09:36:22;9.45;99.99
70336;SHT31;57756;47.408;18.940;2024-03-02T09:38:48;9.43;99.99
70336;SHT31;57756;47.408;18.940;2024-03-02T09:41:16;9.39;99.99
70336;SHT31;57756;47.408;18.940;2024-03-02T09:43:42;9.38;99.99
70336;SHT31;57756;47.408;18.940;2024-03-02T09:46:10;9.36;99.99
70336;SHT31;57756;47.408;18.940;2024-03-02T09:48:36;9.40;99.99
70336;SHT31;57756;47.408;18.940;2024-03-02T09:51:01;9.34;99.99
70336;SHT31;57756;47.408;18.940;2024-03-02T09:53:32;9.40;99.99
70336;SHT31;57756;47.408;18.940;2024-03-02T09:55:59;9.40;99.99
70336;SHT31;57756;47.408;18.940;2024-03-02T09:58:25;9.46;99.99
70336;SHT31;57756;47.408;18.940;2024-03-02T10:00:50;9.42;99.99
70336;SHT31;57756;47.408;18.940;2024-03-02T10:03:18;9.55;99.99
70336;SHT31;57756;47.408;18.940;2024-03-02T10:05:44;9.57;99.99
70336;SHT31;57756;47.408;18.940;2024-03-02T10:08:09;9.63;99.99
70336;SHT31;57756;47.408;18.940;2024-03-02T10:10:38;9.63;99.99
70336;SHT31;57756;47.408;18.940;2024-03-02T10:13:12;9.62;99.99
70336;SHT31;57756;47.408;18.940;2024-03-02T10:15:38;9.62;99.99
70336;SHT31;57756;47.408;18.940;2024-03-02T10:18:09;9.56;99.99
70336;SHT31;57756;47.408;18.940;2024-03-02T10:20:35;9.53;99.99
70336;SHT31;57756;47.408;18.940;2024-03-02T10:25:36;9.64;99.99
70336;SHT31;57756;47.408;18.940;2024-03-02T10:28:02;9.67;99.99
70336;SHT31;57756;47.408;18.940;2024-03-02T10:30:30;9.66;99.99
70336;SHT31;57756;47.408;18.940;2024-03-02T10:32:55;9.79;99.99
70336;SHT31;57756;47.408;18.940;2024-03-02T10:35:22;9.79;99.99
70336;SHT31;57756;47.408;18.940;2024-03-02T10:37:49;9.87;99.99
70336;SHT31;57756;47.408;18.940;2024-03-02T10:40:14;9.84;99.99
70336;SHT31;57756;47.408;18.940;2024-03-02T10:42:41;9.87;99.99
70336;SHT31;57756;47.408;18.940;2024-03-02T10:45:09;9.89;99.99
70336;SHT31;57756;47.408;18.940;2024-03-02T10:47:36;9.87;99.99
70336;SHT31;57756;47.408;18.940;2024-03-02T10:50:04;9.90;99.99
70336;SHT31;57756;47.408;18.940;2024-03-02T10:52:36;9.91;99.99
70336;SHT31;57756;47.408;18.940;2024-03-02T10:55:02;9.94;99.99
70336;SHT31;57756;47.408;18.940;2024-03-02T10:57:36;9.98;99.99
70336;SHT31;57756;47.408;18.940;2024-03-02T11:00:03;9.98;99.99
70336;SHT31;57756;47.408;18.940;2024-03-02T11:02:30;9.97;99.99
70336;SHT31;57756;47.408;18.940;2024-03-02T11:04:57;10.00;99.99
70336;SHT31;57756;47.408;18.940;2024-03-02T11:07:24;10.11;99.99
70336;SHT31;57756;47.408;18.940;2024-03-02T11:10:00;10.31;99.99
70336;SHT31;57756;47.408;18.940;2024-03-02T11:12:29;10.35;99.99
70336;SHT31;57756;47.408;18.940;2024-03-02T11:14:58;10.28;99.99
70336;SHT31;57756;47.408;18.940;2024-03-02T11:17:24;10.27;99.99
70336;SHT31;57756;47.408;18.940;2024-03-02T11:19:50;10.28;99.99
70336;SHT31;57756;47.408;18.940;2024-03-02T11:22:17;10.34;99.99
70336;SHT31;57756;47.408;18.940;2024-03-02T11:24:50;10.45;99.99
70336;SHT31;57756;47.408;18.940;2024-03-02T11:33:06;10.41;99.99
70336;SHT31;57756;47.408;18.940;2024-03-02T11:35:35;10.41;99.99
70336;SHT31;57756;47.408;18.940;2024-03-02T11:38:01;10.39;99.99
70336;SHT31;57756;47.408;18.940;2024-03-02T11:40:28;10.28;99.99
70336;SHT31;57756;47.408;18.940;2024-03-02T11:42:54;10.28;99.99
70336;SHT31;57756;47.408;18.940;2024-03-02T11:45:24;10.27;99.99
70336;SHT31;57756;47.408;18.940;2024-03-02T11:47:50;10.22;99.99
70336;SHT31;57756;47.408;18.940;2024-03-02T11:50:40;10.34;99.99
70336;SHT31;57756;47.408;18.940;2024-03-02T11:53:08;10.45;99.99
70336;SHT31;57756;47.408;18.940;2024-03-02T11:55:35;10.59;99.99
70336;SHT31;57756;47.408;18.940;2024-03-02T11:58:02;10.58;99.99
70336;SHT31;57756;47.408;18.940;2024-03-02T12:00:27;10.55;99.99
70336;SHT31;57756;47.408;18.940;2024-03-02T12:03:00;10.45;99.99
70336;SHT31;57756;47.408;18.940;2024-03-02T12:05:27;10.34;99.99
70336;SHT31;57756;47.408;18.940;2024-03-02T12:08:13;10.32;99.99
70336;SHT31;57756;47.408;18.940;2024-03-02T12:10:39;10.20;99.99
70336;SHT31;57756;47.408;18.940;2024-03-02T12:13:06;10.34;99.99
70336;SHT31;57756;47.408;18.940;2024-03-02T12:15:34;10.25;99.99
70336;SHT31;57756;47.408;18.940;2024-03-02T12:18:01;10.24;99.99
70336;SHT31;57756;47.408;18.940;2024-03-02T12:20:29;10.27;99.99
70336;SHT31;57756;47.408;18.940;2024-03-02T12:22:57;10.27;99.99
70336;SHT31;57756;47.408;18.940;2024-03-02T12:25:24;10.35;99.99
70336;SHT31;57756;47.408;18.940;2024-03-02T12:27:52;10.45;99.99
70336;SHT31;57756;47.408;18.940;2024-03-02T12:30:18;10.44;99.99
70336;SHT31;57756;47.408;18.940;2024-03-02T12:32:44;10.42;99.99
70336;SHT31;57756;47.408;18.940;2024-03-02T12:35:11;10.46;99.99
70336;SHT31;57756;47.408;18.940;2024-03-02T12:37:43;10.53;99.99
70336;SHT31;57756;47.408;18.940;2024-03-02T12:40:11;10.65;99.99
70336;SHT31;57756;47.408;18.940;2024-03-02T12:42:37;10.68;99.99
70336;SHT31;57756;47.408;18.940;2024-03-02T12:45:03;10.62;99.99
70336;SHT31;57756;47.408;18.940;2024-03-02T12:47:29;10.60;99.99
70336;SHT31;57756;47.408;18.940;2024-03-02T12:49:55;10.59;99.99
70336;SHT31;57756;47.408;18.940;2024-03-02T12:52:21;10.65;99.99
70336;SHT31;57756;47.408;18.940;2024-03-02T12:54:47;10.56;99.99
70336;SHT31;57756;47.408;18.940;2024-03-02T12:57:19;10.60;99.99
70336;SHT31;57756;47.408;18.940;2024-03-02T12:59:47;10.55;99.99
70336;SHT31;57756;47.408;18.940;2024-03-02T13:02:20;10.48;99.99
70336;SHT31;57756;47.408;18.940;2024-03-02T13:04:57;10.41;99.99
70336;SHT31;57756;47.408;18.940;2024-03-02T13:07:26;10.44;99.99
70336;SHT31;57756;47.408;18.940;2024-03-02T13:09:52;10.30;99.99
70336;SHT31;57756;47.408;18.940;2024-03-02T13:12:20;10.30;99.99
70336;SHT31;57756;47.408;18.940;2024-03-02T13:14:52;10.48;99.99
70336;SHT31;57756;47.408;18.940;2024-03-02T13:17:19;10.50;99.99
70336;SHT31;57756;47.408;18.940;2024-03-02T13:19:57;10.39;99.99
70336;SHT31;57756;47.408;18.940;2024-03-02T13:22:24;10.32;99.99
70336;SHT31;57756;47.408;18.940;2024-03-02T13:24:50;10.30;99.99
70336;SHT31;57756;47.408;18.940;2024-03-02T13:27:16;10.28;99.99
70336;SHT31;57756;47.408;18.940;2024-03-02T13:29:45;10.27;99.99
70336;SHT31;57756;47.408;18.940;2024-03-02T13:32:10;10.30;99.99
70336;SHT31;57756;47.408;18.940;2024-03-02T13:34:36;10.08;99.99
70336;SHT31;57756;47.408;18.940;2024-03-02T13:37:04;10.08;99.99
70336;SHT31;57756;47.408;18.940;2024-03-02T13:39:31;10.05;99.99
70336;SHT31;57756;47.408;18.940;2024-03-02T13:42:00;10.01;99.99
70336;SHT31;57756;47.408;18.940;2024-03-02T13:44:31;9.95;99.99
70336;SHT31;57756;47.408;18.940;2024-03-02T13:46:57;9.84;99.99
70336;SHT31;57756;47.408;18.940;2024-03-02T13:49:23;9.83;99.99
70336;SHT31;57756;47.408;18.940;2024-03-02T13:51:49;9.77;99.99
70336;SHT31;57756;47.408;18.940;2024-03-02T13:54:14;9.72;99.99
70336;SHT31;57756;47.408;18.940;2024-03-02T13:56:40;9.79;99.99
70336;SHT31;57756;47.408;18.940;2024-03-02T13:59:06;9.80;99.99
70336;SHT31;57756;47.408;18.940;2024-03-02T14:01:32;9.70;99.99
70336;SHT31;57756;47.408;18.940;2024-03-02T14:03:58;9.70;99.99
70336;SHT31;57756;47.408;18.940;2024-03-02T14:06:23;9.67;99.99
70336;SHT31;57756;47.408;18.940;2024-03-02T14:08:51;9.66;99.99
70336;SHT31;57756;47.408;18.940;2024-03-02T14:11:16;9.62;99.99
70336;SHT31;57756;47.408;18.940;2024-03-02T14:13:42;9.59;99.99
70336;SHT31;57756;47.408;18.940;2024-03-02T14:16:10;9.72;99.99
70336;SHT31;57756;47.408;18.940;2024-03-02T14:18:36;9.73;99.99
70336;SHT31;57756;47.408;18.940;2024-03-02T14:21:01;9.64;99.99
70336;SHT31;57756;47.408;18.940;2024-03-02T14:23:26;9.59;99.99
70336;SHT31;57756;47.408;18.940;2024-03-02T14:25:53;9.66;99.99
70336;SHT31;57756;47.408;18.940;2024-03-02T14:28:18;9.57;99.99
70336;SHT31;57756;47.408;18.940;2024-03-02T14:30:44;9.53;99.99
70336;SHT31;57756;47.408;18.940;2024-03-02T14:33:10;9.57;99.99
70336;SHT31;57756;47.408;18.940;2024-03-02T14:35:36;9.53;99.99
70336;SHT31;57756;47.408;18.940;2024-03-02T14:38:01;9.53;99.99
70336;SHT31;57756;47.408;18.940;2024-03-02T14:40:26;9.39;99.99
70336;SHT31;57756;47.408;18.940;2024-03-02T14:42:54;9.45;99.99
70336;SHT31;57756;47.408;18.940;2024-03-02T14:45:19;9.45;99.99
70336;SHT31;57756;47.408;18.940;2024-03-02T14:47:45;9.40;99.99
70336;SHT31;57756;47.408;18.940;2024-03-02T14:50:11;9.36;99.99
70336;SHT31;57756;47.408;18.940;2024-03-02T14:52:36;9.39;99.99
70336;SHT31;57756;47.408;18.940;2024-03-02T14:55:02;9.36;99.99
70336;SHT31;57756;47.408;18.940;2024-03-02T14:57:32;9.38;99.99
70336;SHT31;57756;47.408;18.940;2024-03-02T14:59:58;9.34;99.99
70336;SHT31;57756;47.408;18.940;2024-03-02T15:02:23;9.32;99.99
70336;SHT31;57756;47.408;18.940;2024-03-02T15:04:48;9.43;99.99
70336;SHT31;57756;47.408;18.940;2024-03-02T15:07:14;9.38;99.99
70336;SHT31;57756;47.408;18.940;2024-03-02T15:09:40;9.46;99.99
70336;SHT31;57756;47.408;18.940;2024-03-02T15:12:06;9.45;99.99
70336;SHT31;57756;47.408;18.940;2024-03-02T15:14:34;9.36;99.99
70336;SHT31;57756;47.408;18.940;2024-03-02T15:17:00;9.36;99.99
70336;SHT31;57756;47.408;18.940;2024-03-02T15:19:25;9.39;99.99
70336;SHT31;57756;47.408;18.940;2024-03-02T15:21:51;9.34;99.99
70336;SHT31;57756;47.408;18.940;2024-03-02T15:24:16;9.34;99.99
70336;SHT31;57756;47.408;18.940;2024-03-02T15:26:41;9.34;99.99
70336;SHT31;57756;47.408;18.940;2024-03-02T15:29:07;9.34;99.99
70336;SHT31;57756;47.408;18.940;2024-03-02T15:31:32;9.39;99.99